Time;durP1;ratioP1;P1;durP2;ratioP2;P2;SDS_P1;SDS_P2;PMS_P1;PMS_P2;Temp;Humidity;BMP_temperature;BMP_pressure;BME280_temperature;BME280_humidity;BME280_pressure;Samples;Min_cycle;Max_cycle;Signal;HPM_P1;HPM_P2
2022/03/09 00:02:04;;;;;;;9.73;6.97;;;;;;;2.09;59.77;102192.09;5054139;28;20277;-35
2022/03/09 00:04:31;;;;;;;8.53;6.27;;;;;;;2.01;61.37;102178.66;5054581;28;20174;-35
2022/03/09 00:06:56;;;;;;;8.18;5.97;;;;;;;2.15;63.67;102202.25;5053430;28;20374;-35
2022/03/09 00:09:22;;;;;;;12.13;6.87;;;;;;;2.05;61.19;102191.56;5054225;28;20078;-35
2022/03/09 00:11:47;;;;;;;6.93;5.00;;;;;;;2.19;63.97;102208.94;5053624;28;20028;-35
2022/03/09 00:14:12;;;;;;;7.10;5.83;;;;;;;2.15;63.31;102212.91;5053849;28;20112;-35
2022/03/09 00:16:38;;;;;;;10.80;6.27;;;;;;;2.08;61.09;102213.59;5052393;28;20025;-35
2022/03/09 00:19:03;;;;;;;9.63;6.00;;;;;;;2.16;62.01;102222.59;5052088;28;20044;-35
2022/03/09 00:21:28;;;;;;;7.57;5.93;;;;;;;1.93;63.25;102187.34;5053240;28;20075;-35
2022/03/09 00:23:53;;;;;;;9.07;6.23;;;;;;;2.10;62.80;102216.97;5053132;28;20033;-35
2022/03/09 00:26:19;;;;;;;7.73;5.30;;;;;;;2.00;62.63;102203.63;5053309;28;20033;-35
2022/03/09 00:28:44;;;;;;;7.50;6.03;;;;;;;2.15;64.89;102218.25;5052914;28;20060;-35
2022/03/09 00:31:09;;;;;;;8.40;5.53;;;;;;;2.09;62.19;102217.97;5053858;28;20025;-35
2022/03/09 00:33:35;;;;;;;8.77;5.87;;;;;;;2.12;63.35;102207.00;5053017;28;20118;-35
2022/03/09 00:36:01;;;;;;;7.47;5.30;;;;;;;2.06;63.22;102214.59;5053402;28;20484;-35
2022/03/09 00:38:26;;;;;;;5.75;4.95;;;;;;;1.97;64.49;102199.44;5053106;28;20484;-35
2022/03/09 00:40:52;;;;;;;7.93;5.43;;;;;;;1.90;62.32;102198.31;5053629;28;20037;-35
2022/03/09 00:43:18;;;;;;;9.70;6.22;;;;;;;1.96;61.50;102207.59;5053067;28;20056;-35
2022/03/09 00:45:44;;;;;;;8.05;5.35;;;;;;;1.95;63.18;102212.09;5053445;28;20025;-35
2022/03/09 00:48:09;;;;;;;7.20;5.32;;;;;;;1.96;64.63;102208.44;5053203;28;20021;-35
2022/03/09 00:50:35;;;;;;;7.50;5.37;;;;;;;1.93;62.14;102206.03;5052897;28;20048;-35
2022/03/09 00:53:00;;;;;;;8.53;4.83;;;;;;;2.01;64.84;102200.00;5052616;28;20420;-35
2022/03/09 00:55:25;;;;;;;6.80;4.30;;;;;;;1.99;64.80;102201.94;5068138;28;20098;-35
2022/03/09 00:57:51;;;;;;;6.07;5.17;;;;;;;1.90;63.12;102208.13;5052684;28;20032;-35
2022/03/09 01:00:16;;;;;;;5.90;4.80;;;;;;;1.94;63.79;102210.38;5052839;28;20491;-35
2022/03/09 01:02:43;;;;;;;7.47;4.97;;;;;;;1.93;65.32;102207.88;5053431;28;20017;-35
2022/03/09 01:05:10;;;;;;;6.82;5.10;;;;;;;1.84;62.77;102203.38;5053020;28;20397;-35
2022/03/09 01:07:35;;;;;;;8.05;5.03;;;;;;;1.90;63.87;102211.63;5052367;28;20032;-35
2022/03/09 01:10:01;;;;;;;6.10;5.10;;;;;;;1.85;64.36;102205.03;5052819;28;20025;-35
2022/03/09 01:12:26;;;;;;;6.17;4.90;;;;;;;1.89;63.11;102211.78;5053030;28;20298;-35
2022/03/09 01:14:51;;;;;;;6.23;4.87;;;;;;;1.87;63.96;102211.09;5052685;28;20048;-35
2022/03/09 01:17:17;;;;;;;7.33;5.67;;;;;;;1.77;63.38;102203.94;5052529;28;20029;-35
2022/03/09 01:19:42;;;;;;;8.57;4.87;;;;;;;1.78;65.61;102199.44;5051714;28;20025;-35
2022/03/09 01:22:07;;;;;;;6.67;4.60;;;;;;;1.85;64.96;102202.38;5052767;28;20025;-35
2022/03/09 01:24:33;;;;;;;7.73;5.20;;;;;;;1.82;62.95;102211.53;5052997;28;20033;-35
2022/03/09 01:26:58;;;;;;;6.13;4.80;;;;;;;1.78;64.47;102210.94;5052716;28;20036;-35
2022/03/09 01:29:23;;;;;;;6.47;4.97;;;;;;;1.67;65.42;102192.44;5053429;28;20440;-35
2022/03/09 01:31:49;;;;;;;7.73;5.50;;;;;;;1.63;62.48;102201.69;5052325;28;20056;-35
2022/03/09 01:34:14;;;;;;;7.37;5.57;;;;;;;1.73;64.32;102215.03;5052785;28;20387;-35
2022/03/09 01:36:39;;;;;;;6.77;5.03;;;;;;;1.72;64.10;102208.00;5053197;28;20128;-35
2022/03/09 01:39:05;;;;;;;6.63;5.50;;;;;;;1.67;62.06;102212.91;5053396;28;20397;-35
2022/03/09 01:41:30;;;;;;;7.53;5.47;;;;;;;1.65;62.84;102207.72;5056535;28;20036;-35
2022/03/09 01:44:13;;;;;;;5.13;4.60;;;;;;;1.65;62.63;102204.19;5056158;28;20492;-35
2022/03/09 01:46:40;;;;;;;6.43;5.32;;;;;;;1.58;63.33;102203.94;5056706;28;20037;-35
2022/03/09 01:49:07;;;;;;;6.00;4.78;;;;;;;1.62;63.62;102202.66;5056355;28;20081;-35
2022/03/09 01:51:35;;;;;;;7.50;5.60;;;;;;;1.54;63.35;102198.03;5056266;28;20039;-35
2022/03/09 01:54:03;;;;;;;7.07;5.30;;;;;;;1.50;62.04;102203.75;5056137;28;20033;-35
2022/03/09 01:56:28;;;;;;;9.98;5.90;;;;;;;1.50;61.37;102196.59;5056873;28;20025;-35
2022/03/09 01:58:54;;;;;;;7.13;5.37;;;;;;;1.47;62.06;102201.41;5056283;28;20104;-35
2022/03/09 02:01:19;;;;;;;8.32;5.65;;;;;;;1.45;62.57;102200.69;5056383;28;20021;-35
2022/03/09 02:03:44;;;;;;;8.93;5.60;;;;;;;1.42;63.28;102192.97;5056019;28;20036;-35
2022/03/09 02:06:10;;;;;;;8.67;5.57;;;;;;;1.31;65.06;102174.41;5056155;28;20092;-35
2022/03/09 02:11:20;;;;;;;7.55;6.10;;;;;;;1.40;63.37;102200.25;5056121;28;20036;-35
2022/03/09 02:13:46;;;;;;;8.02;5.20;;;;;;;1.40;62.79;102203.75;5056014;28;20029;-34
2022/03/09 02:16:14;;;;;;;8.05;5.93;;;;;;;1.39;63.43;102207.41;5056457;28;20029;-35
2022/03/09 02:18:39;;;;;;;6.85;4.93;;;;;;;1.40;64.42;102200.25;5055605;28;20068;-35
2022/03/09 02:21:08;;;;;;;9.17;5.30;;;;;;;1.30;62.71;102213.56;5056297;28;20052;-35
2022/03/09 02:23:34;;;;;;;8.75;5.75;;;;;;;1.21;61.92;102211.69;5055547;28;20027;-35
2022/03/09 02:25:59;;;;;;;8.60;6.35;;;;;;;1.21;63.35;102204.56;5055849;28;20200;-35
2022/03/09 02:28:25;;;;;;;8.17;5.77;;;;;;;1.17;62.55;102202.28;5055372;28;20059;-35
2022/03/09 02:30:57;;;;;;;12.00;6.40;;;;;;;1.11;64.26;102187.69;5055911;28;20095;-35
2022/03/09 02:33:22;;;;;;;7.47;5.35;;;;;;;1.14;63.55;102198.09;5055522;28;20052;-35
2022/03/09 02:35:47;;;;;;;7.37;5.60;;;;;;;1.07;64.63;102190.78;5053910;28;20060;-35
2022/03/09 02:38:13;;;;;;;8.13;5.73;;;;;;;1.09;62.07;102191.50;5056062;28;20102;-35
2022/03/09 02:40:38;;;;;;;6.77;4.97;;;;;;;1.11;65.46;102179.69;5055431;28;20037;-35
2022/03/09 02:43:04;;;;;;;6.73;4.80;;;;;;;1.13;65.49;102179.59;5055574;28;20025;-35
2022/03/09 02:45:29;;;;;;;8.87;5.70;;;;;;;1.02;64.71;102180.53;5055797;28;20400;-34
2022/03/09 02:47:56;;;;;;;9.67;5.87;;;;;;;1.02;65.42;102180.53;5055257;28;20381;-35
2022/03/09 02:50:21;;;;;;;9.02;5.70;;;;;;;0.92;63.84;102171.66;5053102;28;20055;-35
2022/03/09 02:52:47;;;;;;;7.03;5.83;;;;;;;0.99;64.22;102175.47;5055000;28;20037;-35
2022/03/09 02:55:13;;;;;;;6.90;6.20;;;;;;;0.86;64.30;102180.19;5055058;28;20108;-35
2022/03/09 02:57:39;;;;;;;8.60;6.13;;;;;;;0.95;65.00;102171.41;5055980;28;20032;-35
2022/03/09 03:00:09;;;;;;;7.32;6.07;;;;;;;0.92;64.43;102171.66;5055067;28;20057;-35
2022/03/09 03:02:35;;;;;;;7.78;5.75;;;;;;;0.87;64.41;102176.53;5055134;28;20025;-35
2022/03/09 03:05:00;;;;;;;8.13;5.60;;;;;;;0.81;63.25;102180.59;5055331;28;20116;-35
2022/03/09 03:07:26;;;;;;;8.63;5.57;;;;;;;0.77;66.52;102171.19;5054873;28;20406;-35
2022/03/09 03:09:51;;;;;;;9.90;5.90;;;;;;;0.71;63.90;102175.22;5070071;28;20083;-35
2022/03/09 03:12:16;;;;;;;8.10;5.77;;;;;;;0.70;65.67;102176.22;5054795;28;20098;-35
2022/03/09 03:14:42;;;;;;;7.37;5.67;;;;;;;0.75;65.29;102189.97;5054642;28;20162;-35
2022/03/09 03:17:07;;;;;;;7.50;5.60;;;;;;;0.79;67.64;102174.56;5054942;28;20057;-35
2022/03/09 03:19:32;;;;;;;8.50;5.97;;;;;;;0.82;69.00;102181.44;5054615;28;20021;-35
2022/03/09 03:21:58;;;;;;;10.33;5.80;;;;;;;0.72;67.20;102168.94;5054348;28;20120;-35
2022/03/09 03:24:23;;;;;;;7.70;5.80;;;;;;;0.68;63.89;102183.50;5054901;28;20037;-35
2022/03/09 03:26:48;;;;;;;8.00;6.20;;;;;;;0.67;64.49;102186.28;5054291;28;20033;-35
2022/03/09 03:29:14;;;;;;;7.70;6.47;;;;;;;0.61;65.33;102189.50;5054683;28;20071;-35
2022/03/09 03:31:39;;;;;;;7.43;5.93;;;;;;;0.70;67.35;102191.34;5054787;28;20375;-35
2022/03/09 03:34:04;;;;;;;6.57;5.53;;;;;;;0.64;65.92;102181.25;5054957;28;20049;-35
2022/03/09 03:36:30;;;;;;;6.90;5.83;;;;;;;0.66;67.75;102173.97;5054966;28;20080;-35
2022/03/09 03:38:55;;;;;;;11.00;6.90;;;;;;;0.63;66.21;102180.38;5054277;28;20040;-35
2022/03/09 03:41:21;;;;;;;10.57;6.40;;;;;;;0.45;64.96;102166.03;5055019;28;20036;-35
2022/03/09 03:43:46;;;;;;;7.15;5.03;;;;;;;0.62;67.21;102178.69;5054207;28;20057;-35
2022/03/09 03:46:11;;;;;;;7.63;5.97;;;;;;;0.61;68.30;102185.00;5053855;28;20078;-35
2022/03/09 03:48:37;;;;;;;14.27;6.00;;;;;;;0.58;66.09;102185.25;5052773;28;20028;-35
2022/03/09 03:51:02;;;;;;;7.53;5.83;;;;;;;0.49;66.19;102178.94;5054286;28;20116;-35
2022/03/09 03:53:27;;;;;;;9.57;5.83;;;;;;;0.44;65.90;102169.63;5054012;28;20110;-35
2022/03/09 03:55:53;;;;;;;8.90;6.63;;;;;;;0.49;64.11;102184.25;5069771;28;20037;-35
2022/03/09 03:58:18;;;;;;;8.83;5.80;;;;;;;0.53;68.41;102184.81;5052406;28;20120;-35
2022/03/09 04:00:43;;;;;;;8.27;6.07;;;;;;;0.52;67.06;102173.31;5054115;28;20051;-35
2022/03/09 04:03:09;;;;;;;7.23;6.00;;;;;;;0.48;66.23;102176.38;5053553;28;20531;-35
2022/03/09 04:05:34;;;;;;;6.93;5.17;;;;;;;0.47;68.35;102174.72;5053763;28;20474;-35
2022/03/09 04:08:00;;;;;;;8.10;6.10;;;;;;;0.45;67.34;102176.66;5053679;28;20032;-35
2022/03/09 04:10:25;;;;;;;7.57;5.97;;;;;;;0.30;64.58;102172.66;5068775;28;20079;-35
2022/03/09 04:12:50;;;;;;;9.93;6.37;;;;;;;0.28;65.97;102174.59;5053888;28;20077;-35
2022/03/09 04:15:16;;;;;;;7.30;5.47;;;;;;;0.36;67.51;102185.44;5053300;28;20025;-35
2022/03/09 04:17:46;;;;;;;6.77;5.50;;;;;;;0.35;68.41;102189.09;5053745;28;20403;-35
2022/03/09 04:20:14;;;;;;;9.32;6.75;;;;;;;0.11;66.38;102171.56;5053719;28;20028;-35
2022/03/09 04:22:41;;;;;;;7.60;5.93;;;;;;;0.29;68.80;102187.75;5053372;28;20398;-35
2022/03/09 04:25:07;;;;;;;9.68;6.70;;;;;;;0.16;66.71;102180.00;5053163;28;20056;-34
2022/03/09 04:27:33;;;;;;;6.20;4.97;;;;;;;0.25;71.04;102167.75;5053279;28;20353;-35
2022/03/09 04:29:58;;;;;;;11.07;6.82;;;;;;;0.15;66.93;102185.47;5053329;28;20036;-35
2022/03/09 04:32:25;;;;;;;8.52;6.22;;;;;;;0.15;66.36;102185.47;5053055;28;20123;-35
2022/03/09 04:34:50;;;;;;;;;;;;;;;0.25;66.46;102183.69;5053551;28;20040;-35
2022/03/09 04:37:15;;;;;;;8.27;5.75;;;;;;;0.18;69.06;102171.88;5053050;28;20283;-35
2022/03/09 04:39:41;;;;;;;10.30;6.60;;;;;;;0.14;66.74;102178.44;5053746;28;20033;-36
2022/03/09 04:42:06;;;;;;;14.87;6.80;;;;;;;0.15;65.87;102173.00;5053414;28;20025;-36
2022/03/09 04:44:31;;;;;;;10.40;6.40;;;;;;;0.18;69.16;102169.22;5053121;28;20428;-36
2022/03/09 04:46:57;;;;;;;7.40;5.30;;;;;;;0.15;69.10;102180.97;5068447;28;20423;-36
2022/03/09 04:49:22;;;;;;;9.73;6.37;;;;;;;0.04;68.60;102167.72;5052757;28;20105;-45
2022/03/09 04:51:48;;;;;;;7.13;5.70;;;;;;;0.09;67.83;102186.78;5053309;28;20028;-40
2022/03/09 04:54:13;;;;;;;10.85;6.22;;;;;;;0.04;67.43;102178.38;5053345;28;20028;-36
2022/03/09 04:56:38;;;;;;;7.87;6.40;;;;;;;0.05;66.04;102174.75;5053032;28;20119;-35
2022/03/09 04:59:04;;;;;;;10.57;7.07;;;;;;;0.14;67.29;102181.94;5052686;28;20076;-36
2022/03/09 05:01:29;;;;;;;8.57;6.77;;;;;;;0.07;67.88;102164.81;5053192;28;20028;-36
2022/03/09 05:03:54;;;;;;;8.17;6.53;;;;;;;0.15;68.59;102172.16;5053237;28;20436;-34
2022/03/09 05:06:20;;;;;;;8.00;6.33;;;;;;;0.11;68.22;102163.59;5052910;28;20025;-34
2022/03/09 05:08:45;;;;;;;9.30;6.80;;;;;;;0.14;70.00;102167.78;5052909;28;20032;-35
2022/03/09 05:11:11;;;;;;;7.60;6.60;;;;;;;0.09;67.31;102168.19;5053249;28;20029;-35
2022/03/09 05:13:36;;;;;;;8.43;6.53;;;;;;;0.15;69.56;102169.50;5052971;28;20029;-35
2022/03/09 05:16:02;;;;;;;8.13;6.47;;;;;;;0.10;67.53;102169.88;5057451;28;20322;-35
2022/03/09 05:18:28;;;;;;;9.85;6.43;;;;;;;0.11;69.68;102174.22;5057607;28;20033;-35
2022/03/09 05:20:53;;;;;;;10.23;7.03;;;;;;;-0.02;67.63;102162.94;5057694;28;20055;-35
2022/03/09 05:23:18;;;;;;;9.93;6.17;;;;;;;0.02;68.06;102171.50;5056751;28;20075;-35
2022/03/09 05:25:44;;;;;;;8.27;6.63;;;;;;;-0.10;67.18;102163.59;5056607;28;20098;-34
2022/03/09 05:28:09;;;;;;;7.60;5.90;;;;;;;-0.06;67.10;102178.28;5056819;28;20071;-35
2022/03/09 05:30:34;;;;;;;8.03;6.00;;;;;;;0.03;71.17;102189.97;5056772;28;20036;-36
2022/03/09 05:33:00;;;;;;;8.30;6.20;;;;;;;0.04;71.59;102177.53;5056366;28;20154;-35
2022/03/09 05:35:25;;;;;;;10.47;6.67;;;;;;;0.03;69.87;102181.16;5057234;28;20109;-36
2022/03/09 05:37:51;;;;;;;9.77;6.50;;;;;;;-0.02;69.99;102185.06;5057202;28;20132;-36
2022/03/09 05:40:16;;;;;;;8.63;6.57;;;;;;;-0.08;68.53;102187.38;5072070;28;20021;-36
2022/03/09 05:42:43;;;;;;;8.80;6.50;;;;;;;-0.09;67.61;102191.03;5055259;28;20287;-34
2022/03/09 05:45:09;;;;;;;11.88;6.07;;;;;;;-0.19;69.03;102184.78;5056095;28;20474;-35
2022/03/09 05:47:34;;;;;;;8.50;5.93;;;;;;;-0.19;68.70;102188.28;5056108;28;20028;-35
2022/03/09 05:50:00;;;;;;;8.70;6.00;;;;;;;-0.09;70.40;102201.66;5056338;28;20028;-35
2022/03/09 05:52:25;;;;;;;8.97;6.00;;;;;;;-0.04;70.40;102202.97;5056343;28;20029;-34
2022/03/09 05:54:52;;;;;;;7.77;5.27;;;;;;;-0.12;70.92;102192.13;5056951;28;20029;-35
2022/03/09 05:57:19;;;;;;;8.35;5.90;;;;;;;-0.20;67.60;102197.22;5056164;28;20036;-35
2022/03/09 05:59:44;;;;;;;7.88;5.95;;;;;;;-0.11;70.23;102207.09;5056897;28;20025;-36
2022/03/09 06:02:09;;;;;;;8.50;6.27;;;;;;;-0.07;71.55;102213.00;5055881;28;20040;-36
2022/03/09 06:04:35;;;;;;;9.40;6.53;;;;;;;-0.09;68.83;102217.63;5056468;28;20037;-36
2022/03/09 06:07:04;;;;;;;11.03;5.73;;;;;;;-0.12;72.36;102212.53;5056053;28;20466;-35
2022/03/09 06:09:29;;;;;;;9.25;6.75;;;;;;;-0.06;72.66;102225.31;5056207;28;20032;-34
2022/03/09 06:11:55;;;;;;;8.83;6.87;;;;;;;-0.07;69.68;102227.16;5055857;28;20094;-35
2022/03/09 06:14:21;;;;;;;10.15;6.93;;;;;;;-0.05;72.50;102221.69;5055602;28;20025;-35
2022/03/09 06:16:47;;;;;;;10.23;6.23;;;;;;;-0.13;71.56;102208.22;5056608;28;20025;-36
2022/03/09 06:19:14;;;;;;;8.38;6.35;;;;;;;-0.01;73.31;102223.13;5055737;28;20033;-36
2022/03/09 06:21:40;;;;;;;10.00;6.80;;;;;;;0.04;73.12;102228.91;5055767;28;20029;-36
2022/03/09 06:24:06;;;;;;;7.63;6.47;;;;;;;-0.02;71.29;102229.41;5055701;28;20032;-36
2022/03/09 06:26:31;;;;;;;8.30;6.13;;;;;;;-0.07;68.89;102229.81;5055963;28;20385;-36
2022/03/09 06:28:56;;;;;;;9.03;6.83;;;;;;;-0.05;68.68;102222.56;5055895;28;20049;-33
2022/03/09 06:31:22;;;;;;;7.53;6.03;;;;;;;-0.15;69.40;102221.59;5055404;28;20017;-36
2022/03/09 06:33:47;;;;;;;11.97;6.70;;;;;;;-0.22;67.62;102241.72;5056015;28;20112;-36
2022/03/09 06:36:12;;;;;;;9.23;6.23;;;;;;;-0.09;72.83;102234.41;5055780;28;20029;-36
2022/03/09 06:38:38;;;;;;;10.30;6.63;;;;;;;-0.09;70.05;102236.22;5055895;28;20028;-36
2022/03/09 06:41:03;;;;;;;13.93;7.37;;;;;;;-0.06;70.62;102242.13;5055639;28;20029;-36
2022/03/09 06:43:28;;;;;;;13.40;7.80;;;;;;;-0.09;70.41;102234.41;5055087;28;20362;-36
2022/03/09 06:45:54;;;;;;;12.10;7.10;;;;;;;0.10;71.60;102249.69;5055792;28;20064;-36
2022/03/09 06:48:19;;;;;;;11.37;7.23;;;;;;;0.14;72.18;102253.75;5055504;28;20128;-33
2022/03/09 06:50:44;;;;;;;12.43;8.27;;;;;;;0.25;72.16;102255.53;5055255;28;20029;-35
2022/03/09 06:53:10;;;;;;;13.73;7.97;;;;;;;0.29;72.05;102256.09;5055170;28;20040;-34
2022/03/09 06:55:36;;;;;;;10.25;7.65;;;;;;;0.38;72.60;102265.97;5055098;28;20079;-35
2022/03/09 06:58:02;;;;;;;14.70;7.97;;;;;;;0.34;69.67;102272.53;5055282;28;20033;-34
2022/03/09 07:00:28;;;;;;;13.90;7.47;;;;;;;0.47;72.05;102274.03;5055506;28;20097;-35
2022/03/09 07:02:55;;;;;;;14.47;7.73;;;;;;;0.46;71.26;102252.88;5055261;28;20353;-36
2022/03/09 07:05:21;;;;;;;13.10;7.20;;;;;;;0.57;68.74;102268.75;5054987;28;20134;-35
2022/03/09 07:07:46;;;;;;;11.80;7.90;;;;;;;0.56;67.08;102253.78;5054910;28;20063;-35
2022/03/09 07:10:13;;;;;;;11.97;7.80;;;;;;;0.67;68.48;102272.31;5055218;28;20029;-35
2022/03/09 07:12:40;;;;;;;14.30;7.03;;;;;;;0.62;66.23;102269.22;5054732;28;20060;-36
2022/03/09 07:15:06;;;;;;;8.20;6.18;;;;;;;0.86;68.73;102279.56;5054310;28;20032;-36
2022/03/09 07:17:32;;;;;;;10.63;6.90;;;;;;;0.75;65.35;102277.84;5053660;28;20428;-35
2022/03/09 07:19:57;;;;;;;8.30;6.28;;;;;;;0.79;67.71;102273.09;5054991;28;20037;-36
2022/03/09 07:22:23;;;;;;;10.43;6.97;;;;;;;0.91;65.89;102281.84;5054988;28;20039;-36
2022/03/09 07:24:48;;;;;;;8.13;5.70;;;;;;;1.05;66.92;102286.81;5055112;28;20047;-36
2022/03/09 07:27:14;;;;;;;11.20;6.67;;;;;;;1.12;66.43;102284.44;5054308;28;20394;-36
2022/03/09 07:29:39;;;;;;;10.73;6.17;;;;;;;1.19;65.13;102278.47;5054703;28;20107;-34
2022/03/09 07:32:05;;;;;;;11.00;5.63;;;;;;;1.23;64.78;102277.22;5054411;28;20428;-35
2022/03/09 07:34:31;;;;;;;9.90;6.25;;;;;;;1.38;63.12;102282.19;5054471;28;20021;-35
2022/03/09 07:36:58;;;;;;;10.20;5.90;;;;;;;1.34;63.22;102257.63;5053626;28;20382;-34
2022/03/09 07:39:28;;;;;;;9.10;6.05;;;;;;;1.53;63.45;102271.00;5054389;28;20029;-35
2022/03/09 07:41:56;;;;;;;11.75;5.95;;;;;;;1.62;63.60;102274.66;5054207;28;20044;-36
2022/03/09 07:44:23;;;;;;;10.27;6.60;;;;;;;1.64;62.73;102269.19;5054321;28;20033;-35
2022/03/09 07:46:48;;;;;;;;;;;;;;;1.78;62.67;102266.97;5054885;28;20069;-35
2022/03/09 07:49:14;;;;;;;8.35;6.45;;;;;;;1.86;62.15;102270.78;5053884;28;19913;-36
2022/03/09 07:51:40;;;;;;;9.30;6.20;;;;;;;1.97;62.42;102273.31;5054097;28;20021;-36
2022/03/09 07:54:06;;;;;;;8.50;5.90;;;;;;;2.06;62.63;102275.13;5053915;28;20116;-36
2022/03/09 07:56:32;;;;;;;8.27;6.25;;;;;;;2.12;61.47;102277.22;5053742;28;20029;-35
2022/03/09 07:58:57;;;;;;;8.00;5.70;;;;;;;2.21;61.26;102273.72;5052603;28;20441;-35
2022/03/09 08:01:23;;;;;;;8.27;6.57;;;;;;;2.32;61.29;102268.22;5054386;28;20113;-36
2022/03/09 08:03:48;;;;;;;8.73;6.18;;;;;;;2.42;61.05;102275.38;5053495;28;20029;-36
2022/03/09 08:06:14;;;;;;;12.48;6.78;;;;;;;2.44;60.89;102270.72;5054651;28;20037;-36
2022/03/09 08:08:40;;;;;;;8.17;6.23;;;;;;;2.58;60.77;102288.97;5053698;28;20028;-36
2022/03/09 08:11:05;;;;;;;7.97;6.15;;;;;;;2.51;60.28;102271.88;5054201;28;20021;-35
2022/03/09 08:13:30;;;;;;;9.93;5.93;;;;;;;2.68;60.17;102292.47;5054215;28;20082;-36
2022/03/09 08:15:56;;;;;;;9.53;5.77;;;;;;;2.82;61.49;102285.84;5053381;28;20472;-36
2022/03/09 08:18:21;;;;;;;9.77;6.43;;;;;;;2.89;59.57;102270.09;5053499;28;20428;-36
2022/03/09 08:20:46;;;;;;;8.03;6.20;;;;;;;2.99;59.38;102282.41;5052055;28;20017;-36
2022/03/09 08:23:12;;;;;;;8.20;6.70;;;;;;;3.11;59.73;102288.41;5053433;28;20064;-36
2022/03/09 08:25:37;;;;;;;10.90;6.40;;;;;;;3.29;58.90;102299.19;5053305;28;20107;-36
2022/03/09 08:28:03;;;;;;;7.73;5.67;;;;;;;3.37;59.27;102293.94;5053790;28;20070;-36
2022/03/09 08:30:28;;;;;;;9.68;6.22;;;;;;;3.46;59.32;102294.88;5053571;28;20055;-36
2022/03/09 08:32:54;;;;;;;8.77;6.40;;;;;;;3.51;58.94;102292.59;5053393;28;20099;-36
2022/03/09 08:35:19;;;;;;;9.27;6.53;;;;;;;3.57;57.97;102292.00;5053632;28;20370;-36
2022/03/09 08:37:44;;;;;;;9.77;6.10;;;;;;;3.65;57.80;102300.09;5053930;28;20051;-36
2022/03/09 08:40:11;;;;;;;11.27;5.57;;;;;;;3.73;58.06;102294.03;5053081;28;20041;-36
2022/03/09 08:42:37;;;;;;;9.10;6.80;;;;;;;3.82;57.83;102293.97;5052636;28;20021;-36
2022/03/09 08:45:03;;;;;;;11.98;7.57;;;;;;;3.90;58.59;102301.22;5053088;28;20385;-36
2022/03/09 08:47:28;;;;;;;10.18;6.28;;;;;;;4.03;58.51;102298.16;5053775;28;20358;-34
2022/03/09 08:49:53;;;;;;;10.07;6.63;;;;;;;4.13;58.10;102299.78;5052719;28;20550;-34
2022/03/09 08:52:19;;;;;;;7.63;6.00;;;;;;;4.16;56.59;102287.09;5053989;28;20033;-35
2022/03/09 08:54:44;;;;;;;8.50;6.33;;;;;;;4.36;56.71;102296.63;5052817;28;20066;-35
2022/03/09 08:57:10;;;;;;;9.60;6.67;;;;;;;4.50;56.35;102293.41;5053127;28;20037;-35
2022/03/09 08:59:35;;;;;;;11.67;6.70;;;;;;;4.63;56.84;102295.66;5053009;28;20362;-35
2022/03/09 09:02:01;;;;;;;10.37;7.17;;;;;;;4.72;55.02;102294.72;5053534;28;20021;-36
2022/03/09 09:04:26;;;;;;;14.07;6.93;;;;;;;4.83;55.23;102293.63;5051742;28;20267;-35
2022/03/09 09:06:51;;;;;;;9.30;6.50;;;;;;;4.96;55.26;102295.88;5053230;28;20029;-35
2022/03/09 09:09:17;;;;;;;8.50;6.10;;;;;;;5.09;55.10;102291.78;5052687;28;20263;-36
2022/03/09 09:11:44;;;;;;;8.97;5.87;;;;;;;5.12;54.96;102279.88;5051526;28;20033;-35
2022/03/09 09:14:10;;;;;;;7.65;5.80;;;;;;;5.23;54.33;102281.47;5053117;28;20251;-35
2022/03/09 09:16:35;;;;;;;9.50;6.88;;;;;;;5.36;54.02;102285.34;5053441;28;20043;-36
2022/03/09 09:19:01;;;;;;;9.63;6.50;;;;;;;5.52;54.70;102281.06;5053049;28;20037;-35
2022/03/09 09:21:26;;;;;;;8.43;6.18;;;;;;;5.58;52.39;102280.41;5053626;28;20037;-36
2022/03/09 09:23:52;;;;;;;7.13;5.97;;;;;;;5.74;53.94;102285.81;5052849;28;20071;-36
2022/03/09 09:26:20;;;;;;;11.00;5.97;;;;;;;5.80;52.62;102284.31;5053131;28;20039;-35
2022/03/09 09:28:45;;;;;;;13.07;6.35;;;;;;;5.90;52.07;102285.88;5052412;28;20032;-36
2022/03/09 09:31:11;;;;;;;8.73;6.70;;;;;;;6.02;52.86;102282.88;5052479;28;20094;-36
2022/03/09 09:33:36;;;;;;;10.33;6.50;;;;;;;6.14;50.79;102277.00;5052800;28;20082;-36
2022/03/09 09:36:02;;;;;;;10.27;7.03;;;;;;;6.16;51.01;102269.66;5052926;28;20024;-36
2022/03/09 09:38:28;;;;;;;9.13;6.35;;;;;;;6.36;50.87;102282.75;5053361;28;20479;-36
2022/03/09 09:40:55;;;;;;;10.40;7.27;;;;;;;6.45;49.32;102282.56;5052643;28;20112;-36
2022/03/09 09:43:21;;;;;;;9.32;6.85;;;;;;;6.59;49.70;102272.16;5052578;28;20303;-36
2022/03/09 09:45:47;;;;;;;10.75;6.90;;;;;;;6.76;50.48;102283.72;5052578;28;20025;-36
2022/03/09 09:48:13;;;;;;;10.57;6.97;;;;;;;6.84;50.52;102276.47;5052705;28;20075;-36
2022/03/09 09:50:40;;;;;;;9.63;7.10;;;;;;;6.99;49.17;102275.78;5053024;28;20600;-36
2022/03/09 09:53:08;;;;;;;9.20;7.15;;;;;;;7.17;49.01;102274.53;5052153;28;20029;-36
2022/03/09 09:55:34;;;;;;;8.70;7.20;;;;;;;7.29;48.78;102274.16;5052915;28;20025;-36
2022/03/09 09:58:00;;;;;;;11.98;7.43;;;;;;;7.39;48.62;102270.22;5052478;28;20078;-36
2022/03/09 10:00:26;;;;;;;12.30;7.57;;;;;;;7.43;47.71;102265.34;5054154;28;20037;-36
2022/03/09 10:02:52;;;;;;;10.93;7.20;;;;;;;7.52;49.10;102264.28;5056563;28;20040;-36
2022/03/09 10:05:19;;;;;;;8.68;7.45;;;;;;;7.69;48.05;102275.81;5056417;28;20021;-36
2022/03/09 10:08:10;;;;;;;11.88;8.02;;;;;;;7.77;47.38;102280.31;5055851;28;20032;-37
2022/03/09 10:10:54;;;;;;;10.45;8.00;;;;;;;7.88;47.53;102278.03;5033975;28;20077;-36
2022/03/09 10:13:26;;;;;;;10.50;7.95;;;;;;;7.89;45.74;102278.88;5034395;28;20030;-36
2022/03/09 10:16:08;;;;;;;13.63;8.63;;;;;;;8.02;47.09;102272.91;5034236;28;20148;-36
2022/03/09 10:18:34;;;;;;;9.95;7.75;;;;;;;8.11;46.67;102271.84;5033497;28;20028;-35
2022/03/09 10:21:13;;;;;;;12.45;8.75;;;;;;;8.10;45.72;102257.53;5033773;28;20112;-36
2022/03/09 10:24:01;;;;;;;13.20;8.95;;;;;;;8.22;47.02;102260.63;5033842;28;20044;-36
2022/03/09 10:26:27;;;;;;;;;;;;;;;8.39;47.18;102266.72;5034138;28;20069;-36
2022/03/09 10:29:03;;;;;;;9.95;7.72;;;;;;;8.46;47.12;102248.81;5016286;28;19913;-36
2022/03/09 10:31:36;;;;;;;9.85;7.85;;;;;;;8.64;46.50;102256.59;5033943;28;20049;-36
2022/03/09 10:34:14;;;;;;;10.35;9.00;;;;;;;8.68;46.23;102250.63;5033209;28;20168;-36
2022/03/09 10:37:12;;;;;;;11.18;8.02;;;;;;;8.84;47.04;102249.63;5018915;28;20124;-36
2022/03/09 10:39:38;;;;;;;11.57;7.97;;;;;;;8.97;46.04;102244.41;4994156;28;20458;-36
2022/03/09 10:42:05;;;;;;;11.18;8.95;;;;;;;8.98;44.88;102248.78;4994160;28;20518;-36
2022/03/09 10:44:47;;;;;;;12.68;8.77;;;;;;;9.08;45.94;102255.75;4993608;28;20058;-36
2022/03/09 10:47:33;;;;;;;12.50;8.50;;;;;;;9.16;45.51;102251.09;4993492;28;20035;-36
2022/03/09 10:50:11;;;;;;;11.88;9.02;;;;;;;9.30;45.86;102246.72;4994317;28;20074;-38
2022/03/09 10:52:55;;;;;;;11.93;8.68;;;;;;;9.46;44.91;102259.16;4993834;28;20031;-35
2022/03/09 10:55:35;;;;;;;12.13;8.38;;;;;;;9.59;45.66;102259.31;4993461;28;20479;-35
2022/03/09 10:58:14;;;;;;;11.35;8.25;;;;;;;9.68;45.19;102255.47;4994082;28;20108;-35
2022/03/09 11:00:43;;;;;;;13.18;9.23;;;;;;;9.68;44.33;102231.19;4993734;28;20049;-35
2022/03/09 11:03:17;;;;;;;11.68;8.82;;;;;;;9.83;45.36;102250.03;4993626;28;20159;-36
2022/03/09 11:05:52;;;;;;;10.93;8.52;;;;;;;9.93;44.32;102239.75;4993843;28;20041;-35
2022/03/09 11:08:23;;;;;;;11.70;9.20;;;;;;;10.01;43.70;102244.19;4993442;28;20078;-37
2022/03/09 11:10:49;;;;;;;12.38;9.15;;;;;;;10.07;44.47;102246.94;4993900;28;20469;-36
2022/03/09 11:13:16;;;;;;;12.18;9.05;;;;;;;10.15;44.58;102246.00;4992422;28;20038;-36
2022/03/09 11:15:42;;;;;;;11.35;9.07;;;;;;;10.20;42.57;102250.78;5022644;28;20044;-35
2022/03/09 11:18:12;;;;;;;14.25;10.68;;;;;;;10.32;42.36;102251.97;5034636;28;20113;-36
2022/03/09 11:20:38;;;;;;;12.73;9.70;;;;;;;10.30;43.25;102241.38;5034944;28;20030;-36
2022/03/09 11:23:04;;;;;;;13.25;10.65;;;;;;;10.26;42.55;102231.13;5034818;28;20492;-36
2022/03/09 11:25:30;;;;;;;14.77;10.32;;;;;;;10.41;42.85;102237.28;5035326;28;20029;-36
2022/03/09 11:27:56;;;;;;;18.20;10.48;;;;;;;10.51;43.19;102237.78;5034657;28;20104;-36
2022/03/09 11:30:23;;;;;;;;;;;;;;;10.63;44.17;102235.38;5035927;28;20370;-36